Terminal Aerodrome Forecast
Issued by NWS

Home | Current Version | Previous Version | Text Only | Print | Product List | Glossary Off
Versions: 1 2 3 4 5 6 7 8 9 10 11 12 13 14 15 16 17 18

508
FTUS43 KTOP 222343 AAA
TAFMHK
TAF AMD
KMHK 222343Z 2300/2324 24008KT P6SM BKN150
     FM230100 18007KT P6SM SCT150
     FM231400 20012KT P6SM FEW250=

USA.gov is the U.S. government's official web portal to all federal, state and local government web resources and services.